Ashburn, Georgia
Current Conditions -  °F | °C
As of 12:35 PM on Friday 21 Nov 2014 (Local Time) from KCKF Reporting Station
Clear Clear  
Wind Chill: 19°   Ceiling: Unl
Heat Index: 19°   Visibility: 10mi
Dew Point:   Wind: 9mph
Humidity: 34%   Direction: 20°NNE
Pressure: 30.38"   Gusts: NA
Location:  31.71°N, 83.65°W
Report Text: KCKF 211735Z AUTO 02008KT 10SM CLR 19/03 A3038 RMK AO2 T01900028
Loading
Personal Weather Stations






























Interactive Weather Map New forecast layout! Learn more

10-Day Weather Forecast

Advertisements
Track Severe Weather on mobile